Time;durP1;ratioP1;P1;durP2;ratioP2;P2;SDS_P1;SDS_P2;PMS_P1;PMS_P2;Temp;Humidity;BMP_temperature;BMP_pressure;BME280_temperature;BME280_humidity;BME280_pressure;Samples;Min_cycle;Max_cycle;Signal;HPM_P1;HPM_P2
2022/04/24 00:00:03;;;;;;;9.30;4.30;;;;;;;;;;5053970;28;20018;-71
2022/04/24 00:02:29;;;;;;;5.28;4.05;;;;;;;;;;5053990;28;20459;-72
2022/04/24 00:04:55;;;;;;;8.98;3.88;;;;;;;;;;5053814;28;20044;-71
2022/04/24 00:07:21;;;;;;;6.78;4.10;;;;;;;;;;5053939;28;20506;-71
2022/04/24 00:09:47;;;;;;;5.97;4.07;;;;;;;;;;5052983;28;20055;-71
2022/04/24 00:12:15;;;;;;;6.22;4.20;;;;;;;;;;5043059;28;20026;-71
2022/04/24 00:14:43;;;;;;;7.18;4.45;;;;;;;;;;5033935;28;20028;-71
2022/04/24 00:17:09;;;;;;;12.90;4.88;;;;;;;;;;5033756;28;20021;-72
2022/04/24 00:19:35;;;;;;;6.38;5.03;;;;;;;;;;5033759;28;20108;-72
2022/04/24 00:22:01;;;;;;;7.10;4.45;;;;;;;;;;5033637;28;20091;-71
2022/04/24 00:24:27;;;;;;;5.80;4.63;;;;;;;;;;5033636;28;20084;-71
2022/04/24 00:26:54;;;;;;;6.35;4.75;;;;;;;;;;5033702;28;20032;-71
2022/04/24 00:29:20;;;;;;;7.35;4.38;;;;;;;;;;5032259;28;20025;-71
2022/04/24 00:31:46;;;;;;;5.65;4.50;;;;;;;;;;5052547;28;20033;-71
2022/04/24 00:34:12;;;;;;;8.20;5.38;;;;;;;;;;5053458;28;20031;-71
2022/04/24 00:36:39;;;;;;;9.27;6.07;;;;;;;;;;5053372;28;20100;-72
2022/04/24 00:39:05;;;;;;;6.63;4.82;;;;;;;;;;5053321;28;20451;-71
2022/04/24 00:41:31;;;;;;;7.28;4.97;;;;;;;;;;5053179;28;20021;-72
2022/04/24 00:43:57;;;;;;;7.55;5.40;;;;;;;;;;5053130;28;20025;-70
2022/04/24 00:46:23;;;;;;;7.78;5.15;;;;;;;;;;5053053;28;20040;-71
2022/04/24 00:48:49;;;;;;;8.60;5.05;;;;;;;;;;5053162;28;20391;-71
2022/04/24 00:51:15;;;;;;;9.82;5.25;;;;;;;;;;5053166;28;20086;-71
2022/04/24 00:53:41;;;;;;;6.88;4.90;;;;;;;;;;5053030;28;20028;-71
2022/04/24 00:56:08;;;;;;;6.95;5.28;;;;;;;;;;5053632;28;20082;-72
2022/04/24 00:58:34;;;;;;;6.65;5.05;;;;;;;;;;5053099;28;20056;-71
2022/04/24 01:01:00;;;;;;;7.78;5.40;;;;;;;;;;5052821;28;20155;-71
2022/04/24 01:03:27;;;;;;;8.60;5.15;;;;;;;;;;5053071;28;20032;-71
2022/04/24 01:05:53;;;;;;;8.20;5.70;;;;;;;;;;5052737;28;20741;-71
2022/04/24 01:08:19;;;;;;;10.32;5.38;;;;;;;;;;5052830;28;20025;-72
2022/04/24 01:10:45;;;;;;;11.13;5.97;;;;;;;;;;5052871;28;20462;-71
2022/04/24 01:13:11;;;;;;;8.32;5.72;;;;;;;;;;5033798;28;20037;-71
2022/04/24 01:15:37;;;;;;;8.88;6.18;;;;;;;;;;5032778;28;20030;-72
2022/04/24 01:18:03;;;;;;;11.48;6.63;;;;;;;;;;5032893;28;20463;-71
2022/04/24 01:20:29;;;;;;;9.38;5.88;;;;;;;;;;5032536;28;20025;-72
2022/04/24 01:22:56;;;;;;;11.75;5.97;;;;;;;;;;5032651;28;20025;-72
2022/04/24 01:25:22;;;;;;;9.43;5.78;;;;;;;;;;5032696;28;20111;-71
2022/04/24 01:27:48;;;;;;;9.30;5.97;;;;;;;;;;5032729;28;20325;-72
2022/04/24 01:30:14;;;;;;;9.88;6.30;;;;;;;;;;5038634;28;20029;-72
2022/04/24 01:32:40;;;;;;;8.50;6.20;;;;;;;;;;5052526;28;20028;-71
2022/04/24 01:35:13;;;;;;;8.63;5.88;;;;;;;;;;5050690;28;20366;-71
2022/04/24 01:37:42;;;;;;;10.05;6.47;;;;;;;;;;5051100;28;20032;-72
2022/04/24 01:40:08;;;;;;;10.23;6.78;;;;;;;;;;5052256;28;20094;-71
2022/04/24 01:42:34;;;;;;;10.98;6.82;;;;;;;;;;5052299;28;20029;-72
2022/04/24 01:45:00;;;;;;;13.95;6.82;;;;;;;;;;5052153;28;20036;-72
2022/04/24 01:47:26;;;;;;;9.82;7.03;;;;;;;;;;5052354;28;20040;-71
2022/04/24 01:49:52;;;;;;;16.45;6.97;;;;;;;;;;5052072;28;20036;-72
2022/04/24 01:52:18;;;;;;;10.43;7.45;;;;;;;;;;5052124;28;20029;-72
2022/04/24 01:54:44;;;;;;;11.35;7.43;;;;;;;;;;5052148;28;20090;-71
2022/04/24 01:57:10;;;;;;;10.65;7.28;;;;;;;;;;5052095;28;20025;-71
2022/04/24 01:59:36;;;;;;;11.55;7.60;;;;;;;;;;5052043;28;20036;-72
2022/04/24 02:02:02;;;;;;;13.60;7.45;;;;;;;;;;5051771;28;20501;-71
2022/04/24 02:04:28;;;;;;;12.98;8.27;;;;;;;;;;5051923;28;20041;-72
2022/04/24 02:06:54;;;;;;;11.90;7.55;;;;;;;;;;5051719;28;20041;-72
2022/04/24 02:09:20;;;;;;;15.15;7.53;;;;;;;;;;5051865;28;20467;-71
2022/04/24 02:11:46;;;;;;;11.82;7.70;;;;;;;;;;5044670;28;20083;-72
2022/04/24 02:14:12;;;;;;;14.00;7.75;;;;;;;;;;5031915;28;20468;-72
2022/04/24 02:16:38;;;;;;;10.20;7.50;;;;;;;;;;5031956;28;20849;-72
2022/04/24 02:19:05;;;;;;;15.35;8.73;;;;;;;;;;5031866;28;20021;-71
2022/04/24 02:21:31;;;;;;;10.50;7.68;;;;;;;;;;5030417;28;20017;-72
2022/04/24 02:23:57;;;;;;;12.85;7.70;;;;;;;;;;5031853;28;20365;-72
2022/04/24 02:26:23;;;;;;;10.25;7.07;;;;;;;;;;5031915;28;20120;-71
2022/04/24 02:28:49;;;;;;;13.50;7.43;;;;;;;;;;5031823;28;20068;-72
2022/04/24 02:31:15;;;;;;;9.73;6.95;;;;;;;;;;5044910;28;20075;-71
2022/04/24 02:33:41;;;;;;;16.48;7.50;;;;;;;;;;5054962;28;20021;-71
2022/04/24 02:36:07;;;;;;;12.82;7.55;;;;;;;;;;5055607;28;20083;-72
2022/04/24 02:38:33;;;;;;;12.52;7.65;;;;;;;;;;5055730;28;20100;-72
2022/04/24 02:41:00;;;;;;;11.50;7.47;;;;;;;;;;5055695;28;20070;-71
2022/04/24 02:43:26;;;;;;;12.75;7.57;;;;;;;;;;5054238;28;20021;-72
2022/04/24 02:45:52;;;;;;;14.45;7.47;;;;;;;;;;5055584;28;20492;-72
2022/04/24 02:48:18;;;;;;;12.68;7.85;;;;;;;;;;5055511;28;20111;-72
2022/04/24 02:50:44;;;;;;;13.35;7.88;;;;;;;;;;5055471;28;20025;-71
2022/04/24 02:53:10;;;;;;;12.95;7.35;;;;;;;;;;5055418;28;20024;-71
2022/04/24 02:55:36;;;;;;;12.52;7.60;;;;;;;;;;5055719;28;20552;-72
2022/04/24 02:58:03;;;;;;;10.40;7.32;;;;;;;;;;5055395;28;20360;-71
2022/04/24 03:00:39;;;;;;;12.38;7.22;;;;;;;;;;5055015;28;20023;-71
2022/04/24 03:03:07;;;;;;;10.90;6.60;;;;;;;;;;5055407;28;20127;-71
2022/04/24 03:05:33;;;;;;;10.85;7.15;;;;;;;;;;5055001;28;20114;-71
2022/04/24 03:07:59;;;;;;;13.07;7.57;;;;;;;;;;5053707;28;20037;-71
2022/04/24 03:10:26;;;;;;;13.00;7.07;;;;;;;;;;5055161;28;20510;-71
2022/04/24 03:12:52;;;;;;;12.60;7.25;;;;;;;;;;5038932;28;20356;-72
2022/04/24 03:15:18;;;;;;;11.63;6.30;;;;;;;;;;5035024;28;20373;-71
2022/04/24 03:17:44;;;;;;;12.45;7.38;;;;;;;;;;5035231;28;20105;-71
2022/04/24 03:20:11;;;;;;;12.30;6.72;;;;;;;;;;5033525;28;20036;-71
2022/04/24 03:22:37;;;;;;;13.32;6.60;;;;;;;;;;5035080;28;20029;-71
2022/04/24 03:25:05;;;;;;;9.55;6.60;;;;;;;;;;5034935;28;20033;-71
2022/04/24 03:27:31;;;;;;;11.85;6.90;;;;;;;;;;5034951;28;20031;-72
2022/04/24 03:29:57;;;;;;;11.02;6.43;;;;;;;;;;5038669;28;20099;-71
2022/04/24 03:32:23;;;;;;;12.13;7.10;;;;;;;;;;5053359;28;20029;-71
2022/04/24 03:34:49;;;;;;;9.95;6.18;;;;;;;;;;5054533;28;20028;-71
2022/04/24 03:37:16;;;;;;;9.45;6.28;;;;;;;;;;5054601;28;20071;-72
2022/04/24 03:39:42;;;;;;;11.00;6.40;;;;;;;;;;5053198;28;20111;-71
2022/04/24 03:42:08;;;;;;;13.10;6.40;;;;;;;;;;5054717;28;20100;-77
2022/04/24 03:44:34;;;;;;;10.68;6.75;;;;;;;;;;5053164;28;20032;-71
2022/04/24 03:47:00;;;;;;;10.20;6.63;;;;;;;;;;5054463;28;20451;-71
2022/04/24 03:49:27;;;;;;;11.63;6.47;;;;;;;;;;5054443;28;20044;-71
2022/04/24 03:51:53;;;;;;;9.15;6.35;;;;;;;;;;5054320;28;20455;-71
2022/04/24 03:54:19;;;;;;;8.90;6.25;;;;;;;;;;5054328;28;20037;-71
2022/04/24 03:56:45;;;;;;;9.10;6.30;;;;;;;;;;5054367;28;20037;-71
2022/04/24 03:59:11;;;;;;;14.43;6.90;;;;;;;;;;5054151;28;20497;-71
2022/04/24 04:01:37;;;;;;;9.35;6.05;;;;;;;;;;5053988;28;20032;-72
2022/04/24 04:04:03;;;;;;;8.05;5.70;;;;;;;;;;5054178;28;20385;-71
2022/04/24 04:06:29;;;;;;;10.57;5.35;;;;;;;;;;5053779;28;20513;-71
2022/04/24 04:08:56;;;;;;;12.18;6.38;;;;;;;;;;5054060;28;20057;-71
2022/04/24 04:11:22;;;;;;;8.07;5.70;;;;;;;;;;5050376;28;20328;-71
2022/04/24 04:13:48;;;;;;;9.00;6.00;;;;;;;;;;5033953;28;20484;-72
2022/04/24 04:16:14;;;;;;;9.23;5.72;;;;;;;;;;5034023;28;20037;-71
2022/04/24 04:18:40;;;;;;;8.32;5.32;;;;;;;;;;5033914;28;20033;-71
2022/04/24 04:21:06;;;;;;;9.40;5.70;;;;;;;;;;5032477;28;20032;-71
2022/04/24 04:23:32;;;;;;;9.48;5.60;;;;;;;;;;5033964;28;20110;-71
2022/04/24 04:25:58;;;;;;;11.35;5.50;;;;;;;;;;5033694;28;20044;-71
2022/04/24 04:28:24;;;;;;;10.52;5.60;;;;;;;;;;5033785;28;20029;-71
2022/04/24 04:30:51;;;;;;;8.40;4.95;;;;;;;;;;5044853;28;20118;-72
2022/04/24 04:33:17;;;;;;;7.68;5.30;;;;;;;;;;5053536;28;20163;-71
2022/04/24 04:35:43;;;;;;;9.32;5.40;;;;;;;;;;5053476;28;20478;-72
2022/04/24 04:38:09;;;;;;;7.82;4.80;;;;;;;;;;5053523;28;20056;-71
2022/04/24 04:40:35;;;;;;;9.25;5.35;;;;;;;;;;5053469;28;20451;-71
2022/04/24 04:43:01;;;;;;;11.60;5.60;;;;;;;;;;5053427;28;20463;-71
2022/04/24 04:45:27;;;;;;;8.05;5.05;;;;;;;;;;5053262;28;20033;-71
2022/04/24 04:47:53;;;;;;;7.05;5.00;;;;;;;;;;5053336;28;20104;-72
2022/04/24 04:50:19;;;;;;;9.02;5.80;;;;;;;;;;5053152;28;20060;-71
2022/04/24 04:52:45;;;;;;;8.40;4.90;;;;;;;;;;5053256;28;20048;-71
2022/04/24 04:55:11;;;;;;;10.57;5.55;;;;;;;;;;5052862;28;20352;-71
2022/04/24 04:57:38;;;;;;;10.60;4.88;;;;;;;;;;5053123;28;20044;-71
2022/04/24 05:00:07;;;;;;;8.23;4.93;;;;;;;;;;5052946;28;20028;-71
2022/04/24 05:02:37;;;;;;;8.13;4.75;;;;;;;;;;5052871;28;20021;-72
2022/04/24 05:05:03;;;;;;;7.65;4.88;;;;;;;;;;5052862;28;20036;-71
2022/04/24 05:07:30;;;;;;;6.70;4.93;;;;;;;;;;5052778;28;20041;-71
2022/04/24 05:09:56;;;;;;;8.85;6.07;;;;;;;;;;5052686;28;20104;-72
2022/04/24 05:12:26;;;;;;;9.13;5.13;;;;;;;;;;5040759;28;20041;-72
2022/04/24 05:14:52;;;;;;;6.75;4.30;;;;;;;;;;5032678;28;20061;-72
2022/04/24 05:17:18;;;;;;;7.80;4.78;;;;;;;;;;5032848;28;20506;-71
2022/04/24 05:19:44;;;;;;;10.38;4.47;;;;;;;;;;5032684;28;20057;-71
2022/04/24 05:22:10;;;;;;;7.40;4.88;;;;;;;;;;5032621;28;20029;-71
2022/04/24 05:24:36;;;;;;;5.97;4.35;;;;;;;;;;5032658;28;20036;-72
2022/04/24 05:27:02;;;;;;;6.05;4.43;;;;;;;;;;5032727;28;20029;-71
2022/04/24 05:29:28;;;;;;;5.63;4.25;;;;;;;;;;5032507;28;20100;-71
2022/04/24 05:31:54;;;;;;;7.88;4.57;;;;;;;;;;5050922;28;20437;-71
2022/04/24 05:34:20;;;;;;;6.60;4.45;;;;;;;;;;5052365;28;20463;-71
2022/04/24 05:36:46;;;;;;;7.85;4.45;;;;;;;;;;5052297;28;20021;-71
2022/04/24 05:39:12;;;;;;;7.40;4.68;;;;;;;;;;5050887;28;20104;-71
2022/04/24 05:41:38;;;;;;;7.15;4.55;;;;;;;;;;5052388;28;20056;-72
2022/04/24 05:44:04;;;;;;;5.38;3.90;;;;;;;;;;5052276;28;20139;-71
2022/04/24 05:46:30;;;;;;;7.05;4.00;;;;;;;;;;5052176;28;20016;-73
2022/04/24 05:49:00;;;;;;;6.07;4.47;;;;;;;;;;5052205;28;20433;-71
2022/04/24 05:51:26;;;;;;;7.68;4.18;;;;;;;;;;5050617;28;20049;-72
2022/04/24 05:53:52;;;;;;;5.30;4.00;;;;;;;;;;5051914;28;20790;-71
2022/04/24 05:56:18;;;;;;;12.02;4.10;;;;;;;;;;5052076;28;20041;-71
2022/04/24 05:58:44;;;;;;;7.57;4.07;;;;;;;;;;5052055;28;20032;-72
2022/04/24 06:01:10;;;;;;;6.07;3.90;;;;;;;;;;5051660;28;20025;-71
2022/04/24 06:03:40;;;;;;;5.57;4.30;;;;;;;;;;5051819;28;20051;-71
2022/04/24 06:06:06;;;;;;;6.57;4.50;;;;;;;;;;5051380;28;20017;-72
2022/04/24 06:08:32;;;;;;;10.15;4.50;;;;;;;;;;5051137;28;20358;-72
2022/04/24 06:10:58;;;;;;;8.45;4.03;;;;;;;;;;5051022;28;20094;-71
2022/04/24 06:13:24;;;;;;;6.03;3.85;;;;;;;;;;5031630;28;20357;-71
2022/04/24 06:15:55;;;;;;;9.93;3.70;;;;;;;;;;5031699;28;20387;-73
2022/04/24 06:18:21;;;;;;;6.15;4.25;;;;;;;;;;5031784;28;20017;-72
2022/04/24 06:20:47;;;;;;;4.90;3.80;;;;;;;;;;5031569;28;20029;-71
2022/04/24 06:23:13;;;;;;;7.70;4.32;;;;;;;;;;5031684;28;20029;-71
2022/04/24 06:25:39;;;;;;;8.77;4.38;;;;;;;;;;5031671;28;20486;-72
2022/04/24 06:28:05;;;;;;;7.80;4.18;;;;;;;;;;5030439;28;20087;-72
2022/04/24 06:30:35;;;;;;;7.82;4.18;;;;;;;;;;5040019;28;20025;-72
2022/04/24 06:33:01;;;;;;;7.75;3.65;;;;;;;;;;5051463;28;20021;-71
2022/04/24 06:35:27;;;;;;;7.18;4.03;;;;;;;;;;5051229;28;20116;-71
2022/04/24 06:37:54;;;;;;;8.63;4.63;;;;;;;;;;5051813;28;20028;-71
2022/04/24 06:40:23;;;;;;;7.45;3.92;;;;;;;;;;5051401;28;20021;-71
2022/04/24 06:42:57;;;;;;;7.38;4.10;;;;;;;;;;5051464;28;20171;-71
2022/04/24 06:45:26;;;;;;;6.05;3.72;;;;;;;;;;5051389;28;20032;-71
2022/04/24 06:47:55;;;;;;;6.85;3.97;;;;;;;;;;5050046;28;20025;-72
2022/04/24 06:50:25;;;;;;;5.88;4.28;;;;;;;;;;5051310;28;20013;-71
2022/04/24 06:52:57;;;;;;;6.28;3.63;;;;;;;;;;5051545;28;20032;-73
2022/04/24 06:55:24;;;;;;;7.30;4.03;;;;;;;;;;5051612;28;20025;-72
2022/04/24 06:57:51;;;;;;;7.28;3.95;;;;;;;;;;5051433;28;20025;-74
2022/04/24 07:00:18;;;;;;;5.15;3.83;;;;;;;;;;5050861;28;20024;-72
2022/04/24 07:02:44;;;;;;;7.85;4.28;;;;;;;;;;5051419;28;20021;-72
2022/04/24 07:05:10;;;;;;;8.13;3.90;;;;;;;;;;5051165;28;20033;-72
2022/04/24 07:07:36;;;;;;;6.45;4.35;;;;;;;;;;5051185;28;20095;-72
2022/04/24 07:10:02;;;;;;;6.72;3.70;;;;;;;;;;5051232;28;20463;-72
2022/04/24 07:12:29;;;;;;;8.48;4.18;;;;;;;;;;5038396;28;20029;-72
2022/04/24 07:14:55;;;;;;;5.78;4.03;;;;;;;;;;5031027;28;20080;-72
2022/04/24 07:17:22;;;;;;;6.35;4.07;;;;;;;;;;5031354;28;20033;-72
2022/04/24 07:19:48;;;;;;;4.93;3.55;;;;;;;;;;5034510;28;20028;-72
2022/04/24 07:22:16;;;;;;;7.22;3.85;;;;;;;;;;5034965;28;20080;-72
2022/04/24 07:24:42;;;;;;;5.30;4.07;;;;;;;;;;5034970;28;20037;-72
2022/04/24 07:27:08;;;;;;;5.68;3.63;;;;;;;;;;5034967;28;20037;-72
2022/04/24 07:29:34;;;;;;;4.78;3.50;;;;;;;;;;5035461;28;20028;-72
2022/04/24 07:32:00;;;;;;;8.15;4.03;;;;;;;;;;5054551;28;20028;-72
2022/04/24 07:34:26;;;;;;;6.40;3.85;;;;;;;;;;5054555;28;20021;-72
2022/04/24 07:36:52;;;;;;;6.90;3.67;;;;;;;;;;5053052;28;20055;-72
2022/04/24 07:39:18;;;;;;;10.35;4.25;;;;;;;;;;5054533;28;20064;-72
2022/04/24 07:41:44;;;;;;;8.23;3.67;;;;;;;;;;5054600;28;20060;-72
2022/04/24 07:44:10;;;;;;;7.07;3.85;;;;;;;;;;5054460;28;20075;-72
2022/04/24 07:46:36;;;;;;;9.35;4.28;;;;;;;;;;5054357;28;20025;-72
2022/04/24 07:49:02;;;;;;;9.30;4.03;;;;;;;;;;5052975;28;20474;-72
2022/04/24 07:51:29;;;;;;;6.40;3.53;;;;;;;;;;5054312;28;20029;-72
2022/04/24 07:53:55;;;;;;;6.72;3.25;;;;;;;;;;5054107;28;20025;-71
2022/04/24 07:56:21;;;;;;;7.60;4.30;;;;;;;;;;5054245;28;20029;-72
2022/04/24 07:58:47;;;;;;;6.68;3.97;;;;;;;;;;5054226;28;20079;-72
2022/04/24 08:01:16;;;;;;;5.28;3.80;;;;;;;;;;5053755;28;20029;-72
2022/04/24 08:03:42;;;;;;;7.55;3.78;;;;;;;;;;5054027;28;20021;-72
2022/04/24 08:06:08;;;;;;;7.65;3.95;;;;;;;;;;5053909;28;20036;-72
2022/04/24 08:08:34;;;;;;;6.18;4.03;;;;;;;;;;5053807;28;20083;-72
2022/04/24 08:11:00;;;;;;;9.70;3.72;;;;;;;;;;5052805;28;20085;-72
2022/04/24 08:13:27;;;;;;;5.88;3.38;;;;;;;;;;5033897;28;20030;-72
2022/04/24 08:15:53;;;;;;;6.93;3.80;;;;;;;;;;5037218;28;20024;-72
2022/04/24 08:18:20;;;;;;;10.02;3.83;;;;;;;;;;5053806;28;20029;-75
2022/04/24 08:20:46;;;;;;;9.38;3.88;;;;;;;;;;5053705;28;20101;-72
2022/04/24 08:23:15;;;;;;;6.50;3.80;;;;;;;;;;5052327;28;20031;-72
2022/04/24 08:25:41;;;;;;;7.05;3.80;;;;;;;;;;5053587;28;20052;-72
2022/04/24 08:28:08;;;;;;;11.10;3.90;;;;;;;;;;5053778;28;20033;-72
2022/04/24 08:30:39;;;;;;;7.82;3.45;;;;;;;;;;5048060;28;20032;-72
2022/04/24 08:33:05;;;;;;;5.60;4.03;;;;;;;;;;5033700;28;20423;-72
2022/04/24 08:35:31;;;;;;;7.28;3.67;;;;;;;;;;5033284;28;20041;-72
2022/04/24 08:37:57;;;;;;;7.70;3.63;;;;;;;;;;5033631;28;20033;-72
2022/04/24 08:40:24;;;;;;;5.07;3.97;;;;;;;;;;5044861;28;20028;-72
2022/04/24 08:42:52;;;;;;;8.60;3.35;;;;;;;;;;5053332;28;20032;-74
2022/04/24 08:45:18;;;;;;;5.90;4.03;;;;;;;;;;5053210;28;20057;-72
2022/04/24 08:47:45;;;;;;;6.75;3.80;;;;;;;;;;5053245;28;20025;-72
2022/04/24 08:50:12;;;;;;;6.15;3.60;;;;;;;;;;5053221;28;20048;-72
2022/04/24 08:52:38;;;;;;;5.93;3.55;;;;;;;;;;5053249;28;20086;-72
2022/04/24 08:55:05;;;;;;;5.10;3.78;;;;;;;;;;5051399;28;20407;-72
2022/04/24 08:57:31;;;;;;;4.97;3.70;;;;;;;;;;5053105;28;20032;-72
2022/04/24 08:59:58;;;;;;;5.60;3.35;;;;;;;;;;5052769;28;20048;-72
2022/04/24 09:02:24;;;;;;;7.10;3.67;;;;;;;;;;5052790;28;20017;-72
2022/04/24 09:04:52;;;;;;;6.63;4.18;;;;;;;;;;5052882;28;20029;-72
2022/04/24 09:07:19;;;;;;;5.47;4.10;;;;;;;;;;5052504;28;20402;-72
2022/04/24 09:09:46;;;;;;;5.57;3.88;;;;;;;;;;5052906;28;20395;-72
2022/04/24 09:12:12;;;;;;;6.80;3.80;;;;;;;;;;5042151;28;20112;-72
2022/04/24 09:14:38;;;;;;;6.85;4.18;;;;;;;;;;5032594;28;20046;-72
2022/04/24 09:17:15;;;;;;;6.50;3.92;;;;;;;;;;5032730;28;20091;-73
2022/04/24 09:19:41;;;;;;;6.20;4.20;;;;;;;;;;5032602;28;20383;-73
2022/04/24 09:22:11;;;;;;;5.35;3.90;;;;;;;;;;5032356;28;20022;-73
2022/04/24 09:24:41;;;;;;;7.63;4.07;;;;;;;;;;5032662;28;20036;-73
2022/04/24 09:27:07;;;;;;;5.57;3.85;;;;;;;;;;5032805;28;20029;-74
2022/04/24 09:29:34;;;;;;;7.63;4.40;;;;;;;;;;5033249;28;20037;-74
2022/04/24 09:32:00;;;;;;;9.82;4.45;;;;;;;;;;5052362;28;20075;-75
2022/04/24 09:34:31;;;;;;;6.85;3.70;;;;;;;;;;5050894;28;20033;-74
2022/04/24 09:37:01;;;;;;;5.80;3.80;;;;;;;;;;5052367;28;20113;-75
2022/04/24 09:39:28;;;;;;;6.85;3.80;;;;;;;;;;5052268;28;20041;-74
2022/04/24 09:42:03;;;;;;;4.57;3.47;;;;;;;;;;5052307;28;20116;-74
2022/04/24 09:44:36;;;;;;;11.40;3.95;;;;;;;;;;5052168;28;20033;-74
2022/04/24 09:47:02;;;;;;;8.93;3.92;;;;;;;;;;5052164;28;20041;-75
2022/04/24 09:49:28;;;;;;;4.55;3.47;;;;;;;;;;5052136;28;20498;-74
2022/04/24 09:51:55;;;;;;;6.35;4.38;;;;;;;;;;5052051;28;20483;-73
2022/04/24 09:54:21;;;;;;;7.38;3.80;;;;;;;;;;5052058;28;20033;-75
2022/04/24 09:56:49;;;;;;;7.93;3.75;;;;;;;;;;5052096;28;20074;-77
2022/04/24 09:59:16;;;;;;;8.80;3.85;;;;;;;;;;5052036;28;20024;-78
2022/04/24 10:01:42;;;;;;;8.63;4.53;;;;;;;;;;5051788;28;20025;-77
2022/04/24 10:04:09;;;;;;;8.27;3.80;;;;;;;;;;5051912;28;20035;-76
2022/04/24 10:06:36;;;;;;;6.22;3.85;;;;;;;;;;5051716;28;20104;-77
2022/04/24 10:09:04;;;;;;;7.88;4.00;;;;;;;;;;5051931;28;20128;-76
2022/04/24 10:11:31;;;;;;;14.95;4.07;;;;;;;;;;5047056;28;20018;-75
2022/04/24 10:14:03;;;;;;;13.35;3.85;;;;;;;;;;5031804;28;20044;-77
2022/04/24 10:16:41;;;;;;;6.55;3.70;;;;;;;;;;5031745;28;20451;-77
2022/04/24 10:19:06;;;;;;;4.88;3.60;;;;;;;;;;5068720;28;20024;-77
2022/04/24 10:21:32;;;;;;;8.35;3.80;;;;;;;;;;5071782;28;20044;-77
2022/04/24 10:24:12;;;;;;;4.97;3.63;;;;;;;;;;5071720;28;20039;-78
2022/04/24 10:26:38;;;;;;;5.50;3.50;;;;;;;;;;5071821;28;20029;-77
2022/04/24 10:29:06;;;;;;;9.50;3.67;;;;;;;;;;5071761;28;20059;-77
2022/04/24 10:31:41;;;;;;;4.55;3.58;;;;;;;;;;5054782;28;20032;-76
2022/04/24 10:34:07;;;;;;;10.85;3.47;;;;;;;;;;5051561;28;20033;-75
2022/04/24 10:36:33;;;;;;;6.43;3.47;;;;;;;;;;5049988;28;20024;-75
2022/04/24 10:39:00;;;;;;;5.38;3.72;;;;;;;;;;5051677;28;20066;-76
2022/04/24 10:41:30;;;;;;;4.03;3.60;;;;;;;;;;5031985;28;20361;-75
2022/04/24 10:43:57;;;;;;;12.20;3.70;;;;;;;;;;5031596;28;20017;-77
2022/04/24 10:46:31;;;;;;;7.03;3.60;;;;;;;;;;5031646;28;20022;-76
2022/04/24 10:49:08;;;;;;;7.40;3.60;;;;;;;;;;5031796;28;20087;-77
2022/04/24 10:51:35;;;;;;;7.80;3.60;;;;;;;;;;5032121;28;20034;-76
2022/04/24 10:54:08;;;;;;;4.95;3.75;;;;;;;;;;5033849;28;20032;-77
2022/04/24 10:56:35;;;;;;;8.02;3.60;;;;;;;;;;5034174;28;20014;-74
2022/04/24 10:59:07;;;;;;;5.35;3.22;;;;;;;;;;5035492;28;20040;-75
2022/04/24 11:01:35;;;;;;;5.35;3.75;;;;;;;;;;5046580;28;20021;-75
2022/04/24 11:04:05;;;;;;;14.82;3.45;;;;;;;;;;5055251;28;20466;-75
2022/04/24 11:06:31;;;;;;;4.75;3.20;;;;;;;;;;5055006;28;20070;-75
2022/04/24 11:09:06;;;;;;;8.57;3.45;;;;;;;;;;5055091;28;20494;-76
2022/04/24 11:11:33;;;;;;;5.53;3.28;;;;;;;;;;5050079;28;20494;-76
2022/04/24 11:14:01;;;;;;;4.60;3.28;;;;;;;;;;5034918;28;20030;-77
2022/04/24 11:16:27;;;;;;;4.68;3.47;;;;;;;;;;5035180;28;20028;-75
2022/04/24 11:18:54;;;;;;;5.47;3.35;;;;;;;;;;5035038;28;20353;-77
2022/04/24 11:21:21;;;;;;;11.68;3.15;;;;;;;;;;5054088;28;20539;-76
2022/04/24 11:23:48;;;;;;;8.20;3.55;;;;;;;;;;5054703;28;20051;-76
2022/04/24 11:26:14;;;;;;;4.40;3.30;;;;;;;;;;5054870;28;20119;-75
2022/04/24 11:28:45;;;;;;;7.18;3.70;;;;;;;;;;5054696;28;20475;-73
2022/04/24 11:31:15;;;;;;;8.13;3.75;;;;;;;;;;5054566;28;20036;-75
2022/04/24 11:34:12;;;;;;;5.63;3.70;;;;;;;;;;5054657;28;20459;-73
2022/04/24 11:36:38;;;;;;;8.98;3.42;;;;;;;;;;5032091;28;20075;-74
2022/04/24 11:39:07;;;;;;;6.68;3.53;;;;;;;;;;5032215;28;20033;-73
2022/04/24 11:41:33;;;;;;;5.78;3.40;;;;;;;;;;5032160;28;20037;-74
2022/04/24 11:44:00;;;;;;;7.03;3.45;;;;;;;;;;5015700;28;20025;-79
2022/04/24 11:51:55;;;;;;;7.35;3.30;;;;;;;;;;5032823;28;20063;-75
2022/04/24 11:54:23;;;;;;;6.72;3.33;;;;;;;;;;5032325;28;20038;-76
2022/04/24 11:56:50;;;;;;;7.13;3.40;;;;;;;;;;5031921;28;20442;-75
2022/04/24 11:59:19;;;;;;;4.18;3.30;;;;;;;;;;5031873;28;20037;-77
2022/04/24 12:01:46;;;;;;;4.57;3.42;;;;;;;;;;5031795;28;20021;-76
2022/04/24 12:04:18;;;;;;;5.20;3.42;;;;;;;;;;5014759;28;20427;-75
2022/04/24 12:06:44;;;;;;;;;;;;;;;;;;5031395;28;20551;-76
2022/04/24 12:09:10;;;;;;;8.85;3.05;;;;;;;;;;5031795;28;19956;-74
2022/04/24 12:11:36;;;;;;;4.18;3.00;;;;;;;;;;5032013;28;20033;-75
2022/04/24 12:14:05;;;;;;;4.60;3.10;;;;;;;;;;5033669;28;20053;-74
2022/04/24 12:16:31;;;;;;;7.50;3.20;;;;;;;;;;5033891;28;20029;-76
2022/04/24 12:18:57;;;;;;;6.60;3.35;;;;;;;;;;5033874;28;20029;-76
2022/04/24 12:21:27;;;;;;;3.75;2.90;;;;;;;;;;5033866;28;20100;-75
2022/04/24 12:23:54;;;;;;;4.32;2.85;;;;;;;;;;5033950;28;20087;-76
2022/04/24 12:26:20;;;;;;;5.07;3.05;;;;;;;;;;5033992;28;20030;-76
2022/04/24 12:28:47;;;;;;;5.55;2.53;;;;;;;;;;5032414;28;20477;-75
2022/04/24 12:31:29;;;;;;;6.32;2.97;;;;;;;;;;5048226;28;20025;-74
2022/04/24 12:33:56;;;;;;;4.10;2.42;;;;;;;;;;5053449;28;20037;-73
2022/04/24 12:36:22;;;;;;;4.80;2.75;;;;;;;;;;5053480;28;20025;-74
2022/04/24 12:38:58;;;;;;;5.22;3.00;;;;;;;;;;5053664;28;20036;-76
2022/04/24 12:41:24;;;;;;;10.82;3.03;;;;;;;;;;5053471;28;20048;-74
2022/04/24 12:43:51;;;;;;;3.15;2.42;;;;;;;;;;5053597;28;20029;-75
2022/04/24 12:46:17;;;;;;;9.27;2.90;;;;;;;;;;5053349;28;20029;-75
2022/04/24 12:48:53;;;;;;;7.22;2.70;;;;;;;;;;5053269;28;20078;-75
2022/04/24 12:51:23;;;;;;;5.32;2.72;;;;;;;;;;5053381;28;20108;-77
2022/04/24 12:53:50;;;;;;;10.18;2.90;;;;;;;;;;5053056;28;20136;-75
2022/04/24 12:56:17;;;;;;;5.53;3.00;;;;;;;;;;5053333;28;20025;-73
2022/04/24 12:58:43;;;;;;;4.60;2.55;;;;;;;;;;5053172;28;20049;-74
2022/04/24 13:01:11;;;;;;;5.45;2.80;;;;;;;;;;5051463;28;20456;-74
2022/04/24 13:03:39;;;;;;;4.97;2.45;;;;;;;;;;5053030;28;20022;-75
2022/04/24 13:06:05;;;;;;;3.95;2.40;;;;;;;;;;5051082;28;20029;-74
2022/04/24 13:08:31;;;;;;;3.47;2.13;;;;;;;;;;5052239;28;20037;-75
2022/04/24 13:10:57;;;;;;;6.35;2.33;;;;;;;;;;5052319;28;20025;-74
2022/04/24 13:13:23;;;;;;;3.65;2.60;;;;;;;;;;5051017;28;20378;-74
2022/04/24 13:18:34;;;;;;;6.25;2.35;;;;;;;;;;5051698;28;20537;-75
2022/04/24 13:21:00;;;;;;;5.35;2.22;;;;;;;;;;5052341;28;20048;-74
2022/04/24 13:23:26;;;;;;;6.93;1.98;;;;;;;;;;5050895;28;20044;-74
2022/04/24 13:25:53;;;;;;;4.53;2.42;;;;;;;;;;5043561;28;20013;-75
2022/04/24 13:28:21;;;;;;;6.43;2.20;;;;;;;;;;5040715;28;20022;-74
2022/04/24 13:30:49;;;;;;;3.53;2.20;;;;;;;;;;5040507;28;20025;-75
2022/04/24 13:33:17;;;;;;;6.95;2.33;;;;;;;;;;5036166;28;20053;-74
2022/04/24 13:35:44;;;;;;;4.03;2.22;;;;;;;;;;5035396;28;20029;-74
2022/04/24 13:38:19;;;;;;;3.67;2.08;;;;;;;;;;5037224;28;20032;-74
2022/04/24 13:40:46;;;;;;;3.45;1.95;;;;;;;;;;5034984;28;20136;-75
2022/04/24 13:43:12;;;;;;;6.72;2.33;;;;;;;;;;5036182;28;20095;-74
2022/04/24 13:45:39;;;;;;;2.88;1.95;;;;;;;;;;5035087;28;20036;-74
2022/04/24 13:48:05;;;;;;;3.63;2.20;;;;;;;;;;5034078;28;20117;-74
2022/04/24 13:50:32;;;;;;;6.18;1.92;;;;;;;;;;5034592;28;20401;-76
2022/04/24 13:52:59;;;;;;;3.78;2.15;;;;;;;;;;5038843;28;20459;-74
2022/04/24 13:55:29;;;;;;;5.47;2.45;;;;;;;;;;5037495;28;20025;-74
2022/04/24 13:57:56;;;;;;;4.35;1.90;;;;;;;;;;5038582;28;20098;-76
2022/04/24 14:00:23;;;;;;;5.15;2.20;;;;;;;;;;5035992;28;20029;-74
2022/04/24 14:02:49;;;;;;;9.55;2.33;;;;;;;;;;5040510;28;20032;-75
2022/04/24 14:05:16;;;;;;;3.88;2.45;;;;;;;;;;5039329;28;20036;-75
2022/04/24 14:07:42;;;;;;;3.42;2.22;;;;;;;;;;5033827;28;20038;-74
2022/04/24 14:10:08;;;;;;;4.47;2.28;;;;;;;;;;5038597;28;20029;-76
2022/04/24 14:12:35;;;;;;;5.30;2.38;;;;;;;;;;5040101;28;20030;-78
2022/04/24 14:15:01;;;;;;;5.65;2.10;;;;;;;;;;5044319;28;20029;-76
2022/04/24 14:17:27;;;;;;;3.33;1.90;;;;;;;;;;5039628;28;20044;-76
2022/04/24 14:19:53;;;;;;;4.93;2.15;;;;;;;;;;5039522;28;20076;-78
2022/04/24 14:22:19;;;;;;;4.30;2.00;;;;;;;;;;5036284;28;20473;-76
2022/04/24 14:24:46;;;;;;;4.38;2.00;;;;;;;;;;5033260;28;20033;-76
2022/04/24 14:27:17;;;;;;;6.82;2.17;;;;;;;;;;5038034;28;20391;-75
2022/04/24 14:29:43;;;;;;;4.80;2.35;;;;;;;;;;5037030;28;20115;-76
2022/04/24 14:32:12;;;;;;;7.53;2.20;;;;;;;;;;5038109;28;20028;-76
2022/04/24 14:34:39;;;;;;;3.97;1.80;;;;;;;;;;5034861;28;20029;-75
2022/04/24 14:37:06;;;;;;;4.47;1.60;;;;;;;;;;5034580;28;20471;-75
2022/04/24 14:39:32;;;;;;;3.50;1.73;;;;;;;;;;5038310;28;20026;-76
2022/04/24 14:41:58;;;;;;;2.20;1.70;;;;;;;;;;5051757;28;20027;-74
2022/04/24 14:44:24;;;;;;;6.15;1.88;;;;;;;;;;5051634;28;20072;-73
2022/04/24 14:57:50;;;;;;;4.90;1.90;;;;;;;;;;5051247;28;20106;-75